Time;durP1;ratioP1;P1;durP2;ratioP2;P2;SDS_P1;SDS_P2;PMS_P1;PMS_P2;Temp;Humidity;BMP_temperature;BMP_pressure;BME280_temperature;BME280_humidity;BME280_pressure;Samples;Min_cycle;Max_cycle;Signal;HPM_P1;HPM_P2
2022/02/18 00:01:00;;;;;;;;;;;;;;;;;;4991653;28;19934;-69
2022/02/18 00:03:27;;;;;;;;;;;;;;;;;;4992552;28;19925;-69
2022/02/18 00:05:54;;;;;;;;;;;;;;;;;;4990238;28;19932;-69
2022/02/18 00:08:21;;;;;;;;;;;;;;;;;;4991400;28;19929;-69
2022/02/18 00:10:48;;;;;;;;;;;;;;;;;;4993065;28;19964;-69
2022/02/18 00:13:15;;;;;;;;;;;;;;;;;;4992686;28;19980;-68
2022/02/18 00:15:42;;;;;;;;;;;;;;;;;;4989854;28;19930;-68
2022/02/18 00:18:09;;;;;;;;;;;;;;;;;;4988313;28;19926;-68
2022/02/18 00:20:36;;;;;;;;;;;;;;;;;;4991698;28;19933;-67
2022/02/18 00:23:03;;;;;;;;;;;;;;;;;;4992464;28;20325;-68
2022/02/18 00:25:30;;;;;;;;;;;;;;;;;;4991303;28;19933;-67
2022/02/18 00:27:56;;;;;;;;;;;;;;;;;;4991305;28;20278;-69
2022/02/18 00:30:24;;;;;;;;;;;;;;;;;;4989858;28;19926;-67
2022/02/18 00:32:51;;;;;;;;;;;;;;;;;;4987710;28;19930;-67
2022/02/18 00:35:19;;;;;;;;;;;;;;;;;;4989467;28;19929;-68
2022/02/18 00:37:46;;;;;;;;;;;;;;;;;;4992359;28;20016;-69
2022/02/18 00:40:13;;;;;;;;;;;;;;;;;;4990199;28;19930;-69
2022/02/18 00:42:40;;;;;;;;;;;;;;;;;;4990548;28;19948;-69
2022/02/18 00:45:07;;;;;;;;;;;;;;;;;;4987934;28;19938;-69
2022/02/18 00:47:34;;;;;;;;;;;;;;;;;;4984802;28;20308;-69
2022/02/18 00:50:01;;;;;;;;;;;;;;;;;;4992701;28;19929;-68
2022/02/18 00:52:27;;;;;;;;;;;;;;;;;;4991237;28;19930;-68
2022/02/18 00:54:54;;;;;;;;;;;;;;;;;;4986383;28;19930;-67
2022/02/18 00:57:21;;;;;;;;;;;;;;;;;;4989531;28;19929;-68
2022/02/18 00:59:48;;;;;;;;;;;;;;;;;;4988645;28;20416;-69
2022/02/18 01:02:15;;;;;;;;;;;;;;;;;;4991686;28;19926;-69
2022/02/18 01:04:42;;;;;;;;;;;;;;;;;;4981937;28;19952;-69
2022/02/18 01:07:09;;;;;;;;;;;;;;;;;;4988787;28;19980;-69
2022/02/18 01:09:36;;;;;;;;;;;;;;;;;;4988459;28;19925;-69
2022/02/18 01:12:05;;;;;;;;;;;;;;;;;;4982484;28;20297;-69
2022/02/18 01:14:32;;;;;;;;;;;;;;;;;;4988150;28;19926;-68
2022/02/18 01:16:59;;;;;;;;;;;;;;;;;;4979748;28;19926;-68
2022/02/18 01:19:26;;;;;;;;;;;;;;;;;;4985703;28;19933;-68
2022/02/18 01:21:53;;;;;;;;;;;;;;;;;;4988776;28;19933;-68
2022/02/18 01:24:20;;;;;;;;;;;;;;;;;;4981888;28;19926;-69
2022/02/18 01:26:47;;;;;;;;;;;;;;;;;;4987464;28;19941;-69
2022/02/18 01:29:14;;;;;;;;;;;;;;;;;;4981846;28;19936;-69
2022/02/18 01:31:40;;;;;;;;;;;;;;;;;;4989227;28;19926;-69
2022/02/18 01:34:07;;;;;;;;;;;;;;;;;;4985414;28;19926;-68
2022/02/18 01:36:34;;;;;;;;;;;;;;;;;;4977542;28;19930;-69
2022/02/18 01:39:01;;;;;;;;;;;;;;;;;;4991176;28;19940;-69
2022/02/18 01:41:28;;;;;;;;;;;;;;;;;;4988111;28;19933;-69
2022/02/18 01:43:55;;;;;;;;;;;;;;;;;;4988320;28;19926;-69
2022/02/18 01:46:22;;;;;;;;;;;;;;;;;;4985635;28;19933;-68
2022/02/18 01:48:49;;;;;;;;;;;;;;;;;;4981615;28;19926;-68
2022/02/18 01:51:16;;;;;;;;;;;;;;;;;;4988524;28;19930;-68
2022/02/18 01:53:43;;;;;;;;;;;;;;;;;;4985546;28;19932;-69
2022/02/18 01:56:09;;;;;;;;;;;;;;;;;;4989387;28;19929;-69
2022/02/18 01:58:38;;;;;;;;;;;;;;;;;;4986624;28;19988;-69
2022/02/18 02:01:05;;;;;;;;;;;;;;;;;;4983640;28;19925;-69
2022/02/18 02:03:31;;;;;;;;;;;;;;;;;;4987829;28;20298;-69
2022/02/18 02:05:59;;;;;;;;;;;;;;;;;;4986321;28;19925;-69
2022/02/18 02:08:27;;;;;;;;;;;;;;;;;;4986072;28;19925;-69
2022/02/18 02:10:54;;;;;;;;;;;;;;;;;;4991313;28;20031;-69
2022/02/18 02:13:21;;;;;;;;;;;;;;;;;;4982370;28;19937;-69
2022/02/18 02:15:48;;;;;;;;;;;;;;;;;;4988977;28;19941;-68
2022/02/18 02:18:15;;;;;;;;;;;;;;;;;;4989412;28;19932;-68
2022/02/18 02:20:42;;;;;;;;;;;;;;;;;;4989854;28;19977;-68
2022/02/18 02:23:09;;;;;;;;;;;;;;;;;;4979129;28;19926;-68
2022/02/18 02:25:36;;;;;;;;;;;;;;;;;;4985822;28;19933;-68
2022/02/18 02:28:03;;;;;;;;;;;;;;;;;;4987484;28;19936;-69
2022/02/18 02:30:30;;;;;;;;;;;;;;;;;;4989708;28;19926;-69
2022/02/18 02:32:57;;;;;;;;;;;;;;;;;;4990184;28;19926;-69
2022/02/18 02:35:23;;;;;;;;;;;;;;;;;;4989828;28;19926;-68
2022/02/18 02:37:50;;;;;;;;;;;;;;;;;;4982522;28;19930;-68
2022/02/18 02:40:18;;;;;;;;;;;;;;;;;;4986800;28;19932;-69
2022/02/18 02:42:45;;;;;;;;;;;;;;;;;;4985986;28;20452;-68
2022/02/18 02:45:12;;;;;;;;;;;;;;;;;;4984608;28;19944;-68
2022/02/18 02:47:39;;;;;;;;;;;;;;;;;;4993069;28;19930;-68
2022/02/18 02:50:06;;;;;;;;;;;;;;;;;;4989636;28;19948;-67
2022/02/18 02:52:33;;;;;;;;;;;;;;;;;;4985049;28;20005;-68
2022/02/18 02:55:00;;;;;;;;;;;;;;;;;;4982739;28;20305;-68
2022/02/18 02:57:27;;;;;;;;;;;;;;;;;;4986802;28;20360;-68
2022/02/18 02:59:54;;;;;;;;;;;;;;;;;;4984688;28;19933;-69
2022/02/18 03:02:21;;;;;;;;;;;;;;;;;;4987797;28;19932;-69
2022/02/18 03:04:48;;;;;;;;;;;;;;;;;;4987546;28;20282;-67
2022/02/18 03:07:15;;;;;;;;;;;;;;;;;;4988502;28;19932;-68
2022/02/18 03:09:42;;;;;;;;;;;;;;;;;;4985545;28;19936;-68
2022/02/18 03:12:09;;;;;;;;;;;;;;;;;;4985827;28;19932;-67
2022/02/18 03:14:36;;;;;;;;;;;;;;;;;;4987157;28;19934;-67
2022/02/18 03:17:02;;;;;;;;;;;;;;;;;;4984051;28;19933;-68
2022/02/18 03:19:29;;;;;;;;;;;;;;;;;;4990903;28;19949;-69
2022/02/18 03:21:56;;;;;;;;;;;;;;;;;;4982980;28;19962;-68
2022/02/18 03:24:23;;;;;;;;;;;;;;;;;;4979783;28;19936;-68
2022/02/18 03:26:50;;;;;;;;;;;;;;;;;;4983287;28;19932;-68
2022/02/18 03:29:18;;;;;;;;;;;;;;;;;;4989633;28;19925;-68
2022/02/18 03:31:44;;;;;;;;;;;;;;;;;;4987058;28;20432;-68
2022/02/18 03:34:11;;;;;;;;;;;;;;;;;;4990181;28;19932;-68
2022/02/18 03:36:38;;;;;;;;;;;;;;;;;;4986845;28;19926;-68
2022/02/18 03:39:05;;;;;;;;;;;;;;;;;;4993011;28;20316;-69
2022/02/18 03:41:32;;;;;;;;;;;;;;;;;;4992190;28;20044;-68
2022/02/18 03:43:59;;;;;;;;;;;;;;;;;;4990288;28;19934;-68
2022/02/18 03:46:26;;;;;;;;;;;;;;;;;;4994128;28;19940;-68
2022/02/18 03:48:53;;;;;;;;;;;;;;;;;;4993363;28;19926;-69
2022/02/18 03:51:20;;;;;;;;;;;;;;;;;;4989590;28;19925;-68
2022/02/18 03:53:49;;;;;;;;;;;;;;;;;;4996422;28;20229;-68
2022/02/18 03:56:16;;;;;;;;;;;;;;;;;;4991136;28;19926;-69
2022/02/18 03:58:43;;;;;;;;;;;;;;;;;;4991205;28;19934;-69
2022/02/18 04:01:10;;;;;;;;;;;;;;;;;;4987252;28;19926;-68
2022/02/18 04:03:37;;;;;;;;;;;;;;;;;;4990934;28;19933;-68
2022/02/18 04:06:04;;;;;;;;;;;;;;;;;;4991466;28;19926;-68
2022/02/18 04:08:31;;;;;;;;;;;;;;;;;;4991242;28;19930;-68
2022/02/18 04:10:57;;;;;;;;;;;;;;;;;;4990054;28;19930;-67
2022/02/18 04:13:24;;;;;;;;;;;;;;;;;;4991903;28;19930;-69
2022/02/18 04:15:51;;;;;;;;;;;;;;;;;;4991805;28;20490;-69
2022/02/18 04:18:18;;;;;;;;;;;;;;;;;;4989679;28;19926;-69
2022/02/18 04:20:45;;;;;;;;;;;;;;;;;;4982508;28;19933;-69
2022/02/18 04:23:12;;;;;;;;;;;;;;;;;;4984534;28;19926;-69
2022/02/18 04:25:39;;;;;;;;;;;;;;;;;;4990505;28;19925;-69
2022/02/18 04:28:06;;;;;;;;;;;;;;;;;;4989294;28;19957;-68
2022/02/18 04:30:33;;;;;;;;;;;;;;;;;;4989986;28;20297;-68
2022/02/18 04:33:00;;;;;;;;;;;;;;;;;;4988368;28;19929;-68
2022/02/18 04:35:27;;;;;;;;;;;;;;;;;;4989924;28;19933;-68
2022/02/18 04:37:54;;;;;;;;;;;;;;;;;;4988473;28;19926;-68
2022/02/18 04:40:21;;;;;;;;;;;;;;;;;;4989199;28;19927;-66
2022/02/18 04:42:48;;;;;;;;;;;;;;;;;;4984188;28;19933;-69
2022/02/18 04:45:15;;;;;;;;;;;;;;;;;;4991094;28;19969;-69
2022/02/18 04:47:42;;;;;;;;;;;;;;;;;;4988389;28;19925;-68
2022/02/18 04:50:08;;;;;;;;;;;;;;;;;;4992438;28;19925;-68
2022/02/18 04:52:35;;;;;;;;;;;;;;;;;;4988231;28;19926;-68
2022/02/18 04:55:02;;;;;;;;;;;;;;;;;;4979568;28;19929;-69
2022/02/18 04:57:29;;;;;;;;;;;;;;;;;;4985308;28;19933;-70
2022/02/18 04:59:56;;;;;;;;;;;;;;;;;;4987510;28;19925;-68
2022/02/18 05:02:23;;;;;;;;;;;;;;;;;;4990531;28;19926;-68
2022/02/18 05:04:50;;;;;;;;;;;;;;;;;;4990519;28;19932;-68
2022/02/18 05:07:17;;;;;;;;;;;;;;;;;;4987997;28;19936;-70
2022/02/18 05:09:45;;;;;;;;;;;;;;;;;;4992352;28;19926;-68
2022/02/18 05:12:12;;;;;;;;;;;;;;;;;;4989336;28;20072;-69
2022/02/18 05:14:39;;;;;;;;;;;;;;;;;;4992312;28;19926;-68
2022/02/18 05:17:06;;;;;;;;;;;;;;;;;;4990739;28;20309;-70
2022/02/18 05:19:33;;;;;;;;;;;;;;;;;;4988626;28;20396;-69
2022/02/18 05:22:00;;;;;;;;;;;;;;;;;;4989523;28;19932;-69
2022/02/18 05:24:27;;;;;;;;;;;;;;;;;;4988201;28;19925;-68
2022/02/18 05:26:54;;;;;;;;;;;;;;;;;;4992993;28;20028;-69
2022/02/18 05:29:21;;;;;;;;;;;;;;;;;;4983276;28;19926;-69
2022/02/18 05:31:48;;;;;;;;;;;;;;;;;;4986088;28;19932;-68
2022/02/18 05:34:14;;;;;;;;;;;;;;;;;;4994794;23;19930;-70
2022/02/18 05:36:41;;;;;;;;;;;;;;;;;;4965134;28;20017;-70
2022/02/18 05:39:08;;;;;;;;;;;;;;;;;;4974552;28;20292;-71
2022/02/18 05:41:35;;;;;;;;;;;;;;;;;;4976448;28;20246;-71
2022/02/18 05:44:02;;;;;;;;;;;;;;;;;;4975539;28;19973;-70
2022/02/18 05:46:29;;;;;;;;;;;;;;;;;;4971625;28;19934;-71
2022/02/18 05:48:56;;;;;;;;;;;;;;;;;;4973756;28;19933;-70
2022/02/18 05:51:23;;;;;;;;;;;;;;;;;;4976246;28;19926;-70
2022/02/18 05:53:50;;;;;;;;;;;;;;;;;;4973968;28;20301;-71
2022/02/18 05:56:17;;;;;;;;;;;;;;;;;;4976533;28;19926;-71
2022/02/18 05:58:46;;;;;;;;;;;;;;;;;;4976158;28;19926;-70
2022/02/18 06:01:13;;;;;;;;;;;;;;;;;;4969632;28;20016;-69
2022/02/18 06:03:40;;;;;;;;;;;;;;;;;;4970925;28;20026;-69
2022/02/18 06:06:06;;;;;;;;;;;;;;;;;;4975274;28;19965;-69
2022/02/18 06:08:33;;;;;;;;;;;;;;;;;;4969993;28;19926;-70
2022/02/18 06:11:00;;;;;;;;;;;;;;;;;;4973342;28;19934;-70
2022/02/18 06:13:27;;;;;;;;;;;;;;;;;;4972228;28;19980;-69
2022/02/18 06:15:54;;;;;;;;;;;;;;;;;;4974718;28;19934;-69
2022/02/18 06:18:21;;;;;;;;;;;;;;;;;;4972211;28;20424;-70
2022/02/18 06:20:48;;;;;;;;;;;;;;;;;;4971371;28;19926;-69
2022/02/18 06:23:15;;;;;;;;;;;;;;;;;;4977950;28;19929;-69
2022/02/18 06:25:42;;;;;;;;;;;;;;;;;;4977890;28;19933;-71
2022/02/18 06:28:09;;;;;;;;;;;;;;;;;;4977399;28;20425;-70
2022/02/18 06:30:37;;;;;;;;;;;;;;;;;;4972671;28;19949;-69
2022/02/18 06:33:04;;;;;;;;;;;;;;;;;;4974303;28;20058;-68
2022/02/18 06:35:30;;;;;;;;;;;;;;;;;;4971573;28;20365;-68
2022/02/18 06:37:57;;;;;;;;;;;;;;;;;;4973591;28;19926;-69
2022/02/18 06:40:24;;;;;;;;;;;;;;;;;;4967071;28;19929;-69
2022/02/18 06:42:51;;;;;;;;;;;;;;;;;;4971081;28;19968;-71
2022/02/18 06:45:18;;;;;;;;;;;;;;;;;;4972253;28;20266;-71
2022/02/18 06:47:45;;;;;;;;;;;;;;;;;;4975626;28;19938;-71
2022/02/18 06:50:13;;;;;;;;;;;;;;;;;;4971203;28;19970;-70
2022/02/18 06:52:40;;;;;;;;;;;;;;;;;;4953930;28;19934;-69
2022/02/18 06:55:07;;;;;;;;;;;;;;;;;;4965788;28;19926;-70
2022/02/18 06:57:34;;;;;;;;;;;;;;;;;;4962108;28;19949;-70
2022/02/18 07:00:01;;;;;;;;;;;;;;;;;;4967155;28;19957;-69
2022/02/18 07:02:28;;;;;;;;;;;;;;;;;;4956428;28;19949;-69
2022/02/18 07:04:55;;;;;;;;;;;;;;;;;;4969118;28;19930;-69
2022/02/18 07:07:22;;;;;;;;;;;;;;;;;;4976658;28;19926;-70
2022/02/18 07:09:49;;;;;;;;;;;;;;;;;;4972229;28;19930;-71
2022/02/18 07:12:15;;;;;;;;;;;;;;;;;;4972645;28;19926;-70
2022/02/18 07:14:42;;;;;;;;;;;;;;;;;;4973965;28;19930;-70
2022/02/18 07:17:09;;;;;;;;;;;;;;;;;;4960064;28;19937;-69
2022/02/18 07:19:36;;;;;;;;;;;;;;;;;;4973718;28;20282;-71
2022/02/18 07:22:03;;;;;;;;;;;;;;;;;;4974397;28;19933;-69
2022/02/18 07:24:30;;;;;;;;;;;;;;;;;;4970624;28;19933;-68
2022/02/18 07:29:38;;;;;;;;;;;;;;;;;;4970469;28;19930;-70
2022/02/18 07:32:05;;;;;;;;;;;;;;;;;;4969455;28;20446;-69
2022/02/18 07:34:32;;;;;;;;;;;;;;;;;;4961291;28;20389;-70
2022/02/18 07:36:58;;;;;;;;;;;;;;;;;;4964477;28;19933;-70
2022/02/18 07:39:25;;;;;;;;;;;;;;;;;;4978188;28;19952;-70
2022/02/18 07:41:52;;;;;;;;;;;;;;;;;;4971785;28;19933;-69
2022/02/18 07:44:19;;;;;;;;;;;;;;;;;;4971356;28;20022;-69
2022/02/18 07:46:46;;;;;;;;;;;;;;;;;;4975074;28;20021;-70
2022/02/18 07:49:13;;;;;;;;;;;;;;;;;;4972248;28;19929;-68
2022/02/18 07:51:40;;;;;;;;;;;;;;;;;;4971511;28;20378;-69
2022/02/18 07:54:07;;;;;;;;;;;;;;;;;;4972516;28;19926;-70
2022/02/18 07:56:34;;;;;;;;;;;;;;;;;;4969527;28;19941;-70
2022/02/18 07:59:01;;;;;;;;;;;;;;;;;;4968309;28;19926;-69
2022/02/18 08:01:28;;;;;;;;;;;;;;;;;;4964507;28;19926;-70
2022/02/18 08:03:56;;;;;;;;;;;;;;;;;;4961992;28;19926;-69
2022/02/18 08:06:23;;;;;;;;;;;;;;;;;;4977035;28;19926;-70
2022/02/18 08:08:50;;;;;;;;;;;;;;;;;;4971160;28;19940;-69
2022/02/18 08:11:18;;;;;;;;;;;;;;;;;;4975342;28;20394;-69
2022/02/18 08:13:45;;;;;;;;;;;;;;;;;;4975458;28;19926;-70
2022/02/18 08:16:13;;;;;;;;;;;;;;;;;;4972135;28;20203;-70
2022/02/18 08:18:43;;;;;;;;;;;;;;;;;;4969296;28;20382;-69
2022/02/18 08:21:10;;;;;;;;;;;;;;;;;;4975636;28;20009;-67
2022/02/18 08:23:37;;;;;;;;;;;;;;;;;;4970797;28;19937;-69
2022/02/18 08:26:04;;;;;;;;;;;;;;;;;;4967289;28;19948;-69
2022/02/18 08:28:30;;;;;;;;;;;;;;;;;;4976314;28;19932;-70
2022/02/18 08:30:57;;;;;;;;;;;;;;;;;;4964260;28;20302;-71
2022/02/18 08:33:24;;;;;;;;;;;;;;;;;;4970459;28;20013;-69
2022/02/18 08:35:51;;;;;;;;;;;;;;;;;;4964209;28;19930;-69
2022/02/18 08:38:18;;;;;;;;;;;;;;;;;;4969961;28;20025;-69
2022/02/18 08:40:45;;;;;;;;;;;;;;;;;;4970650;28;21644;-69
2022/02/18 08:43:12;;;;;;;;;;;;;;;;;;4976701;28;19926;-69
2022/02/18 08:45:39;;;;;;;;;;;;;;;;;;4965657;28;20393;-69
2022/02/18 08:48:06;;;;;;;;;;;;;;;;;;4970997;28;20322;-67
2022/02/18 08:50:33;;;;;;;;;;;;;;;;;;4972566;28;19929;-70
2022/02/18 08:53:00;;;;;;;;;;;;;;;;;;4972478;28;20400;-69
2022/02/18 08:55:29;;;;;;;;;;;;;;;;;;4975910;28;19926;-69
2022/02/18 08:57:57;;;;;;;;;;;;;;;;;;4964575;28;20340;-69
2022/02/18 09:00:24;;;;;;;;;;;;;;;;;;4976352;28;20444;-69
2022/02/18 09:02:51;;;;;;;;;;;;;;;;;;4970478;28;19937;-68
2022/02/18 09:05:18;;;;;;;;;;;;;;;;;;4959552;28;20371;-68
2022/02/18 09:07:45;;;;;;;;;;;;;;;;;;4963043;28;19926;-69
2022/02/18 09:10:12;;;;;;;;;;;;;;;;;;4965968;28;20009;-69
2022/02/18 09:12:40;;;;;;;;;;;;;;;;;;4972858;28;19926;-69
2022/02/18 09:15:07;;;;;;;;;;;;;;;;;;4975826;28;19930;-68
2022/02/18 09:17:33;;;;;;;;;;;;;;;;;;4973801;28;19934;-69
2022/02/18 09:20:00;;;;;;;;;;;;;;;;;;4975883;28;19926;-69
2022/02/18 09:22:27;;;;;;;;;;;;;;;;;;4971132;28;20301;-69
2022/02/18 09:24:54;;;;;;;;;;;;;;;;;;4968413;28;19941;-70
2022/02/18 09:27:21;;;;;;;;;;;;;;;;;;4976411;28;19934;-70
2022/02/18 09:29:48;;;;;;;;;;;;;;;;;;4973296;28;19941;-70
2022/02/18 09:32:15;;;;;;;;;;;;;;;;;;4965860;28;20118;-71
2022/02/18 09:34:43;;;;;;;;;;;;;;;;;;4971701;28;20552;-69
2022/02/18 09:37:14;;;;;;;;;;;;;;;;;;4975482;28;20036;-70
2022/02/18 09:39:41;;;;;;;;;;;;;;;;;;4975949;28;20262;-70
2022/02/18 09:42:08;;;;;;;;;;;;;;;;;;4967749;28;20374;-69
2022/02/18 09:44:35;;;;;;;;;;;;;;;;;;4964942;28;19942;-70
2022/02/18 09:47:02;;;;;;;;;;;;;;;;;;4968899;28;19930;-69
2022/02/18 09:49:29;;;;;;;;;;;;;;;;;;4972151;28;19926;-69
2022/02/18 09:51:56;;;;;;;;;;;;;;;;;;4970175;28;20021;-69
2022/02/18 09:54:26;;;;;;;;;;;;;;;;;;4972543;28;19925;-70
2022/02/18 09:56:53;;;;;;;;;;;;;;;;;;4966833;28;20266;-70
2022/02/18 09:59:19;;;;;;;;;;;;;;;;;;4965200;28;19926;-69
2022/02/18 10:01:47;;;;;;;;;;;;;;;;;;4965865;28;19926;-69
2022/02/18 10:04:14;;;;;;;;;;;;;;;;;;4968413;28;19965;-70
2022/02/18 10:06:41;;;;;;;;;;;;;;;;;;4965117;28;19926;-69
2022/02/18 10:09:08;;;;;;;;;;;;;;;;;;4963586;28;20431;-69
2022/02/18 10:11:35;;;;;;;;;;;;;;;;;;4967329;28;19930;-69
2022/02/18 10:14:02;;;;;;;;;;;;;;;;;;4963860;28;20436;-69
2022/02/18 10:16:29;;;;;;;;;;;;;;;;;;4963317;28;19933;-70
2022/02/18 10:18:56;;;;;;;;;;;;;;;;;;4964949;28;19930;-68
2022/02/18 10:21:23;;;;;;;;;;;;;;;;;;4963525;28;19930;-68
2022/02/18 10:23:50;;;;;;;;;;;;;;;;;;4972732;28;19930;-69
2022/02/18 10:26:17;;;;;;;;;;;;;;;;;;4962869;28;20385;-69
2022/02/18 10:28:45;;;;;;;;;;;;;;;;;;4961332;28;20408;-68
2022/02/18 10:31:12;;;;;;;;;;;;;;;;;;4966587;28;20365;-69
2022/02/18 10:33:39;;;;;;;;;;;;;;;;;;4966833;28;19933;-70
2022/02/18 10:36:06;;;;;;;;;;;;;;;;;;4980346;28;19950;-69
2022/02/18 10:38:33;;;;;;;;;;;;;;;;;;4970388;28;19926;-68
2022/02/18 10:41:00;;;;;;;;;;;;;;;;;;4971854;28;20005;-68
2022/02/18 10:43:27;;;;;;;;;;;;;;;;;;4972902;28;19935;-68
2022/02/18 10:45:55;;;;;;;;;;;;;;;;;;4971225;28;19946;-68
2022/02/18 10:48:24;;;;;;;;;;;;;;;;;;4976218;28;19926;-67
2022/02/18 10:50:51;;;;;;;;;;;;;;;;;;4966342;28;19938;-68
2022/02/18 10:53:19;;;;;;;;;;;;;;;;;;4969255;28;19933;-68
2022/02/18 10:55:46;;;;;;;;;;;;;;;;;;4966247;28;19941;-68
2022/02/18 10:58:13;;;;;;;;;;;;;;;;;;4972197;28;19934;-69
2022/02/18 11:00:43;;;;;;;;;;;;;;;;;;4966428;28;20298;-68
2022/02/18 11:03:10;;;;;;;;;;;;;;;;;;4972597;28;20016;-69
2022/02/18 11:05:37;;;;;;;;;;;;;;;;;;4968870;28;19934;-68
2022/02/18 11:08:04;;;;;;;;;;;;;;;;;;4965440;28;19953;-70
2022/02/18 11:10:31;;;;;;;;;;;;;;;;;;4980707;28;20349;-69
2022/02/18 11:12:58;;;;;;;;;;;;;;;;;;4974394;28;19930;-69
2022/02/18 11:15:25;;;;;;;;;;;;;;;;;;4965352;28;19956;-69
2022/02/18 11:17:52;;;;;;;;;;;;;;;;;;4973497;28;20381;-68
2022/02/18 11:20:19;;;;;;;;;;;;;;;;;;4971584;28;19935;-68
2022/02/18 11:22:46;;;;;;;;;;;;;;;;;;4969661;28;19941;-69
2022/02/18 11:25:13;;;;;;;;;;;;;;;;;;4970473;28;19934;-69
2022/02/18 11:27:40;;;;;;;;;;;;;;;;;;4969242;28;19970;-70
2022/02/18 11:30:07;;;;;;;;;;;;;;;;;;4969370;28;19930;-69
2022/02/18 11:32:34;;;;;;;;;;;;;;;;;;4970793;28;19932;-69
2022/02/18 11:35:01;;;;;;;;;;;;;;;;;;4986929;23;19930;-68
2022/02/18 11:37:28;;;;;;;;;;;;;;;;;;4972299;28;19933;-69
2022/02/18 11:39:55;;;;;;;;;;;;;;;;;;4972669;28;19934;-68
2022/02/18 11:42:22;;;;;;;;;;;;;;;;;;4970686;28;19929;-69
2022/02/18 11:44:49;;;;;;;;;;;;;;;;;;4971160;28;19926;-69
2022/02/18 11:47:16;;;;;;;;;;;;;;;;;;4971594;28;19949;-69
2022/02/18 11:49:43;;;;;;;;;;;;;;;;;;4972595;28;20312;-69
2022/02/18 11:52:10;;;;;;;;;;;;;;;;;;4960861;28;19931;-68
2022/02/18 11:54:37;;;;;;;;;;;;;;;;;;4967443;28;19969;-69
2022/02/18 11:57:04;;;;;;;;;;;;;;;;;;4971195;28;20294;-69
2022/02/18 11:59:31;;;;;;;;;;;;;;;;;;4970835;28;19926;-69
2022/02/18 12:01:58;;;;;;;;;;;;;;;;;;4970468;28;19926;-68
2022/02/18 12:04:25;;;;;;;;;;;;;;;;;;4970372;28;19937;-70
2022/02/18 12:06:52;;;;;;;;;;;;;;;;;;4969962;28;19941;-69
2022/02/18 12:09:19;;;;;;;;;;;;;;;;;;4967577;28;19933;-70
2022/02/18 12:11:46;;;;;;;;;;;;;;;;;;4964723;28;19930;-69
2022/02/18 12:14:12;;;;;;;;;;;;;;;;;;4969474;28;19930;-66
2022/02/18 12:16:39;;;;;;;;;;;;;;;;;;4971774;28;19930;-69
2022/02/18 12:19:07;;;;;;;;;;;;;;;;;;4972136;28;19926;-68
2022/02/18 12:21:34;;;;;;;;;;;;;;;;;;4968817;28;19926;-68
2022/02/18 12:24:01;;;;;;;;;;;;;;;;;;4968827;28;19926;-68
2022/02/18 12:26:30;;;;;;;;;;;;;;;;;;4971895;28;19926;-69
2022/02/18 12:28:57;;;;;;;;;;;;;;;;;;4968688;28;21058;-69
2022/02/18 12:31:24;;;;;;;;;;;;;;;;;;4970541;28;19937;-69
2022/02/18 12:33:51;;;;;;;;;;;;;;;;;;4971680;28;19977;-70
2022/02/18 12:36:18;;;;;;;;;;;;;;;;;;4971083;28;19927;-69
2022/02/18 12:38:45;;;;;;;;;;;;;;;;;;4966102;28;19934;-69
2022/02/18 12:41:12;;;;;;;;;;;;;;;;;;4965507;28;19926;-69
2022/02/18 12:43:41;;;;;;;;;;;;;;;;;;4971778;28;19926;-69
2022/02/18 12:46:08;;;;;;;;;;;;;;;;;;4968337;28;19926;-68
2022/02/18 12:48:35;;;;;;;;;;;;;;;;;;4969428;28;19926;-68
2022/02/18 12:51:03;;;;;;;;;;;;;;;;;;4971529;28;19930;-70
2022/02/18 12:53:30;;;;;;;;;;;;;;;;;;4971690;28;19956;-69
2022/02/18 12:55:57;;;;;;;;;;;;;;;;;;4970355;28;19932;-69
2022/02/18 12:58:24;;;;;;;;;;;;;;;;;;4967768;28;19926;-69
2022/02/18 13:00:51;;;;;;;;;;;;;;;;;;4964650;28;20626;-68
2022/02/18 13:03:18;;;;;;;;;;;;;;;;;;4966464;28;19941;-69
2022/02/18 13:05:45;;;;;;;;;;;;;;;;;;4971179;28;19926;-68
2022/02/18 13:08:12;;;;;;;;;;;;;;;;;;4970302;28;19934;-69
2022/02/18 13:10:39;;;;;;;;;;;;;;;;;;4967967;28;19934;-71
2022/02/18 13:13:06;;;;;;;;;;;;;;;;;;4965624;28;19926;-66
2022/02/18 13:15:33;;;;;;;;;;;;;;;;;;4966192;28;20405;-69
2022/02/18 13:18:01;;;;;;;;;;;;;;;;;;4968629;28;20468;-69
2022/02/18 13:20:29;;;;;;;;;;;;;;;;;;4967069;28;19965;-70
2022/02/18 13:22:56;;;;;;;;;;;;;;;;;;4964228;28;19926;-69
2022/02/18 13:25:23;;;;;;;;;;;;;;;;;;4967199;28;19937;-70
2022/02/18 13:27:50;;;;;;;;;;;;;;;;;;4964450;28;19934;-70
2022/02/18 13:30:17;;;;;;;;;;;;;;;;;;4969614;28;19926;-67
2022/02/18 13:32:44;;;;;;;;;;;;;;;;;;4965566;28;19941;-70
2022/02/18 13:35:11;;;;;;;;;;;;;;;;;;4967202;28;19927;-72
2022/02/18 13:37:38;;;;;;;;;;;;;;;;;;4968060;28;19930;-66
2022/02/18 13:40:05;;;;;;;;;;;;;;;;;;4966127;28;19930;-68
2022/02/18 13:42:32;;;;;;;;;;;;;;;;;;4965658;28;20275;-68
2022/02/18 13:44:59;;;;;;;;;;;;;;;;;;4965238;28;20123;-67
2022/02/18 13:47:26;;;;;;;;;;;;;;;;;;4966194;28;19926;-68
2022/02/18 13:49:53;;;;;;;;;;;;;;;;;;4964544;28;20455;-68
2022/02/18 13:52:20;;;;;;;;;;;;;;;;;;4965370;28;19933;-69
2022/02/18 13:54:46;;;;;;;;;;;;;;;;;;4963711;28;19935;-67
2022/02/18 13:57:20;;;;;;;;;;;;;;;;;;4960726;28;19930;-67
2022/02/18 13:59:49;;;;;;;;;;;;;;;;;;4967403;28;20016;-67
2022/02/18 14:02:18;;;;;;;;;;;;;;;;;;4967398;28;21585;-67
2022/02/18 14:04:45;;;;;;;;;;;;;;;;;;4962626;28;20013;-67
2022/02/18 14:07:14;;;;;;;;;;;;;;;;;;4965561;28;20432;-68
2022/02/18 14:09:41;;;;;;;;;;;;;;;;;;4967532;28;19926;-69
2022/02/18 14:12:08;;;;;;;;;;;;;;;;;;4966502;28;19961;-69
2022/02/18 14:14:35;;;;;;;;;;;;;;;;;;4963245;28;19938;-68
2022/02/18 14:17:02;;;;;;;;;;;;;;;;;;4969904;28;19960;-67
2022/02/18 14:19:29;;;;;;;;;;;;;;;;;;4963133;28;19933;-68
2022/02/18 14:21:56;;;;;;;;;;;;;;;;;;4967251;28;20120;-66
2022/02/18 14:24:23;;;;;;;;;;;;;;;;;;4965308;28;20024;-67
2022/02/18 14:26:50;;;;;;;;;;;;;;;;;;4967572;28;19937;-67
2022/02/18 14:29:17;;;;;;;;;;;;;;;;;;4964283;28;19934;-67
2022/02/18 14:31:45;;;;;;;;;;;;;;;;;;4965485;28;20405;-68
2022/02/18 14:34:13;;;;;;;;;;;;;;;;;;4963641;28;19933;-68
2022/02/18 14:36:40;;;;;;;;;;;;;;;;;;4964744;28;19927;-67
2022/02/18 14:39:07;;;;;;;;;;;;;;;;;;4967256;28;19930;-67
2022/02/18 14:41:34;;;;;;;;;;;;;;;;;;4966029;28;19934;-68
2022/02/18 14:44:01;;;;;;;;;;;;;;;;;;4966381;28;19927;-67
2022/02/18 14:46:28;;;;;;;;;;;;;;;;;;4963536;28;19933;-68
2022/02/18 14:48:56;;;;;;;;;;;;;;;;;;4966981;28;19927;-70
2022/02/18 14:51:23;;;;;;;;;;;;;;;;;;4964550;28;19934;-68
2022/02/18 14:53:50;;;;;;;;;;;;;;;;;;4967417;28;19930;-67
2022/02/18 14:56:17;;;;;;;;;;;;;;;;;;4966995;28;20020;-69
2022/02/18 14:58:43;;;;;;;;;;;;;;;;;;4966074;28;20305;-68
2022/02/18 15:01:10;;;;;;;;;;;;;;;;;;4965736;28;19937;-67
2022/02/18 15:03:37;;;;;;;;;;;;;;;;;;4967785;28;20402;-67
2022/02/18 15:06:04;;;;;;;;;;;;;;;;;;4966539;28;19933;-68
2022/02/18 15:08:32;;;;;;;;;;;;;;;;;;4964678;28;19927;-68
2022/02/18 15:10:58;;;;;;;;;;;;;;;;;;4963472;28;20294;-68
2022/02/18 15:13:25;;;;;;;;;;;;;;;;;;4966383;28;19933;-67
2022/02/18 15:15:53;;;;;;;;;;;;;;;;;;4963481;28;20301;-67
2022/02/18 15:18:22;;;;;;;;;;;;;;;;;;4967214;28;19981;-68
2022/02/18 15:20:49;;;;;;;;;;;;;;;;;;4964524;28;19930;-67
2022/02/18 15:23:16;;;;;;;;;;;;;;;;;;4963236;28;19981;-67
2022/02/18 15:25:43;;;;;;;;;;;;;;;;;;4969675;28;20289;-67
2022/02/18 15:28:11;;;;;;;;;;;;;;;;;;4967171;28;19926;-67
2022/02/18 15:36:07;;;;;;;;;;;;;;;;;;4970062;28;19925;-67
2022/02/18 15:38:34;;;;;;;;;;;;;;;;;;4970239;28;19930;-68
2022/02/18 15:43:46;;;;;;;;;;;;;;;;;;4970111;28;19921;-68
2022/02/18 15:46:13;;;;;;;;;;;;;;;;;;4970157;28;19926;-68
2022/02/18 15:48:40;;;;;;;;;;;;;;;;;;4971738;28;19930;-69
2022/02/18 15:51:06;;;;;;;;;;;;;;;;;;4968103;28;20249;-67
2022/02/18 15:53:33;;;;;;;;;;;;;;;;;;4970144;28;19937;-70
2022/02/18 15:56:00;;;;;;;;;;;;;;;;;;4969701;28;19937;-66
2022/02/18 15:58:30;;;;;;;;;;;;;;;;;;4971756;28;19930;-68
2022/02/18 16:00:58;;;;;;;;;;;;;;;;;;4968547;28;19926;-68
2022/02/18 16:03:26;;;;;;;;;;;;;;;;;;4969830;28;19927;-67
2022/02/18 16:05:53;;;;;;;;;;;;;;;;;;4970093;28;19941;-68
2022/02/18 16:08:20;;;;;;;;;;;;;;;;;;4969375;28;20396;-69
2022/02/18 16:10:47;;;;;;;;;;;;;;;;;;4967507;28;19937;-68
2022/02/18 16:13:14;;;;;;;;;;;;;;;;;;4966033;28;19930;-68
2022/02/18 16:15:42;;;;;;;;;;;;;;;;;;4968779;28;19982;-68
2022/02/18 16:18:09;;;;;;;;;;;;;;;;;;4971781;28;19926;-67
2022/02/18 16:20:36;;;;;;;;;;;;;;;;;;4966583;28;19932;-67
2022/02/18 16:23:03;;;;;;;;;;;;;;;;;;4968638;28;19964;-71
2022/02/18 16:25:32;;;;;;;;;;;;;;;;;;4971375;28;19926;-66
2022/02/18 16:28:00;;;;;;;;;;;;;;;;;;4967853;28;19926;-68
2022/02/18 16:30:26;;;;;;;;;;;;;;;;;;4969059;28;19926;-68
2022/02/18 16:32:53;;;;;;;;;;;;;;;;;;4967648;28;19949;-67
2022/02/18 16:35:20;;;;;;;;;;;;;;;;;;4963718;28;19926;-68
2022/02/18 16:37:49;;;;;;;;;;;;;;;;;;4965196;28;20294;-67
2022/02/18 16:40:16;;;;;;;;;;;;;;;;;;4967645;28;20012;-70
2022/02/18 16:42:43;;;;;;;;;;;;;;;;;;4969671;28;19926;-68
2022/02/18 16:45:10;;;;;;;;;;;;;;;;;;4969914;28;20017;-70
2022/02/18 16:47:37;;;;;;;;;;;;;;;;;;4966731;28;19930;-69
2022/02/18 16:50:04;;;;;;;;;;;;;;;;;;4962125;28;19941;-69
2022/02/18 16:52:31;;;;;;;;;;;;;;;;;;4963106;28;19973;-69
2022/02/18 16:54:58;;;;;;;;;;;;;;;;;;4962973;28;19976;-68